Garden Spring, Nevada Weather observations

Data are for 10 minute period ending at time listed.
 Day   Time    Ave.   Ave.  Ave.  Vector   Max.   Stn.    Total    Solar   Ave.  
  of    of     Air    Rel.  Wind   Wind    Wind   Baro.  Precip.   Rad.    Soil  
Year   Day     Temp.  Hum.  Speed  Dir.    Gust   Pres.                    Temp. 
2026   (PST)    F      %     mph   deg.    mph     mb.     in.     W/m2     F    
--------------------------------------------------------------------------------- 
 121   18:20   63.0    13    2.8    47      5.5   852.0    0.00      12    70.4  
 121   18:30   62.5    13    4.7    42      7.9   852.1    0.00       6    70.2  
 121   18:40   62.2    12    4.2    50      8.4   852.2    0.00       2    70.1  
 121   18:50   61.0    13    1.0    33      4.6   852.3    0.00       1    70.0  
 121   19:00   59.0    14    1.9   342      4.6   852.5    0.00       0    69.7  
 121   19:10   57.9    14    2.6     6      6.2   852.6    0.00       0    69.5  
 121   19:20   58.8    14    3.8    16      8.4   852.7    0.00       0    69.4  
 121   19:30   58.9    14    3.9    12      7.9   852.9    0.00       0    69.4  
 121   19:40   59.4    13    5.3    28     10.6   853.1    0.00       0    69.3  
 121   19:50   59.5    13    3.9    17      7.8   853.2    0.00       0    69.3  
 121   20:00   59.3    14    4.6    19      8.9   853.3    0.00       0    69.1  
 121   20:10   59.4    14    4.3    24      7.7   853.4    0.00       0    68.9  
 121   20:20   59.5    14    4.2    12      7.6   853.6    0.00       0    68.7  
 121   20:30   59.5    14    4.4    11      8.3   853.7    0.00       0    68.5  
 121   20:40   59.0    14    3.7   348      6.3   853.8    0.00       0    68.3  
 121   20:50   58.7    15    3.4   338      6.3   853.9    0.00       0    68.0  
 121   21:00   58.7    15    4.5   355      7.4   853.9    0.00       0    67.8  
 121   21:10   58.9    15    4.6    20     12.8   854.0    0.00       0    67.7  
 121   21:20   59.2    15    5.3    18     10.7   854.0    0.00       0    67.5  
 121   21:30   59.6    14    6.7    24     13.3   854.0    0.00       0    67.3  
 121   21:40   59.7    14    6.1    28     10.7   854.1    0.00       0    67.2  
 121   21:50   59.3    15    5.7    21     11.4   854.1    0.00       0    67.0  
 121   22:00   59.3    15    6.2    19     11.0   854.1    0.00       0    66.7  
 121   22:10   59.6    15    6.6    23     10.6   854.1    0.00       0    66.6  
 121   22:20   59.3    16    6.0    25     11.0   854.2    0.00       0    66.4  
 121   22:30   59.1    17    5.9    18     10.6   854.3    0.00       0    66.1  
 121   22:40   59.4    16    7.0    15     12.8   854.3    0.00       0    66.0  
 121   22:50   59.5    16    6.5    16     11.4   854.3    0.00       0    65.8  
 121   23:00   59.7    15    7.3    11     12.6   854.4    0.00       0    65.6  
 121   23:10   59.5    15    6.5     8     13.8   854.4    0.00       0    65.5  
 121   23:20   59.7    15    6.9     8     11.8   854.4    0.00       0    65.3  
 121   23:30   59.6    15    6.2     3     13.9   854.5    0.00       0    65.1  
 121   23:40   58.9    16    3.7   344      8.9   854.5    0.00       0    64.9  
 121   23:50   57.8    18    3.3   337      8.0   854.4    0.00       0    64.6  
 122    0:00   57.7    18    3.7   336      7.8   854.4    0.00       0    64.4  
 122    0:10   57.9    18    4.2   329      8.7   854.4    0.00       0    64.3  
 122    0:20   56.7    19    4.4   301      7.9   854.3    0.00       0    64.1  
 122    0:30   55.8    19    4.4   305      7.5   854.3    0.00       0    63.9  
 122    0:40   55.6    20    3.2   304      6.8   854.2    0.00       0    63.8  
 122    0:50   55.5    20    3.2   299      6.0   854.2    0.00       0    63.6  
 122    1:00   54.0    22    4.7   281      6.6   854.1    0.00       0    63.4  
 122    1:10   53.4    23    5.4   274      8.2   854.1    0.00       0    63.2  
 122    1:20   52.5    24    4.2   270      7.6   854.0    0.00       0    63.1  
 122    1:30   52.2    24    3.7   278      6.0   854.0    0.00       0    62.9  
 122    1:40   52.2    24    3.3   279      5.4   854.0    0.00       0    62.8  
 122    1:50   52.6    24    2.3   267      5.7   854.0    0.00       0    62.6  
 122    2:00   53.4    22    2.0   352      6.2   854.0    0.00       0    62.5  
 122    2:10   53.8    22    2.5   314      6.0   854.0    0.00       0    62.4  
 122    2:20   52.4    24    3.8   281      5.9   854.0    0.00       0    62.3  
 122    2:30   52.1    24    3.6   287      6.7   854.0    0.00       0    62.2  
 122    2:40   51.2    26    4.2   279      6.5   854.1    0.00       0    62.0  
 122    2:50   51.4    25    4.2   275      6.8   854.1    0.00       0    61.9  
 122    3:00   51.5    25    4.4   279      6.8   854.0    0.00       0    61.8  
 122    3:10   51.7    25    4.5   283      6.5   854.0    0.00       0    61.7  
 122    3:20   51.2    26    4.2   281      7.1   854.0    0.00       0    61.5  
 122    3:30   50.7    26    4.5   268      6.5   853.9    0.00       0    61.4  
 122    3:40   50.9    26    5.1   267      7.6   854.0    0.00       0    61.2  
 122    3:50   51.2    26    3.5   275      5.6   854.0    0.00       0    61.1  
 122    4:00   49.9    28    4.6   275      7.2   854.0    0.00       0    60.9  
 122    4:10   50.4    26    4.1   276      6.8   854.0    0.00       0    60.8  
 122    4:20   50.2    27    4.4   270      6.9   854.1    0.00       0    60.7  
 122    4:30   50.5    27    4.4   265      7.4   854.1    0.00       1    60.6  
 122    4:40   49.5    29    4.9   274      7.9   854.1    0.00       3    60.5  
 122    4:50   49.8    28    5.5   260      7.1   854.2    0.00       8    60.3  
 122    5:00   50.4    28    4.6   270      6.3   854.3    0.00      20    60.2  
 122    5:10   51.3    27    5.3   262      8.3   854.3    0.00      42    60.2  
 122    5:20   52.2    28    4.1   272      5.6   854.4    0.00      74    60.4  
 122    5:30   53.1    29    4.3   264      5.7   854.5    0.00     114    60.5  
 122    5:40   56.0    26    4.0   266      6.3   854.6    0.00     146    60.7  
 122    5:50   58.2    24    3.7   264      7.2   854.7    0.00     186    61.0  
 122    6:00   60.9    20    3.2   249      5.2   854.8    0.00     223    61.2  
 122    6:10   62.7    17    1.7   223      4.4   854.9    0.00     240    61.1  
 122    6:20   64.3    16    2.5   128      7.9   855.0    0.00     290    60.9  
 122    6:30   64.5    15    2.5   164      4.9   855.0    0.00     337    61.0  
 122    6:40   65.2    15    2.5   152      4.9   855.1    0.00     371    60.9  
 122    6:50   65.7    15    4.3    94      7.9   855.0    0.00     387    60.5  
 122    7:00   65.6    14    5.4    95      9.5   855.0    0.00     444    60.3  
 122    7:10   66.1    14    5.8    75      9.9   855.1    0.00     485    60.3  
 122    7:20   67.1    14    5.8    94     13.0   855.1    0.00     526    60.3  
 122    7:30   66.3    13    7.8    96     13.4   855.1    0.00     540    60.2  
 122    7:40   66.3    13    7.5    89     13.0   855.2    0.00     576    60.0  
 122    7:50   67.3    13    6.7    82     12.7   855.2    0.00     616    60.0  
 122    8:00   67.0    12    8.1    89     12.5   855.2    0.00     654    60.0  
 122    8:10   67.6    12    7.0    97     14.9   855.2    0.00     693    60.0  
 122    8:20   68.3    11    6.8    98     11.6   855.3    0.00     708    60.0  
 122    8:30   68.3    11    6.2    92     12.4   855.3    0.00     750    60.1  
 122    8:40   69.4    11    5.1    88     11.1   855.3    0.00     766    60.3  
 122    8:50   68.4    10    5.7   118     11.1   855.3    0.00     791    60.4  
 122    9:00   69.0    10    5.3   110     10.3   855.3    0.00     819    60.5  
 122    9:10   69.1    10    6.9   118     14.7   855.2    0.00     858    60.7  
 122    9:20   69.1    10    6.6   123     14.4   855.2    0.00     874    60.9  
 122    9:30   69.9    10    6.9   122     15.0   855.2    0.00     894    61.1  
 122    9:40   69.5    10    7.3   128     14.3   855.1    0.00     891    61.4  
 122    9:50   70.2    10    7.6   116     14.5   855.1    0.00     917    61.6  
 122   10:00   70.5     9    6.9   131     12.2   855.0    0.00     979    61.9  
 122   10:10   71.0     9    6.4   138     14.7   855.0    0.00     982    62.2  
 122   10:20   71.2    10    5.0   170     12.5   854.9    0.00     992    62.5  
 122   10:30   71.9    10    8.2   136     15.4   854.8    0.00     954    62.7  
 122   10:40   70.8    10    5.0   129     13.0   854.8    0.00     964    62.8  
 122   10:50   71.2     9    7.8   168     14.1   854.6    0.00     979    63.0  
 122   11:00   71.4     9    5.8   131     13.2   854.6    0.00    1005    63.3  
 122   11:10   72.1     9    6.5   147     14.0   854.4    0.00    1050    63.6  
 122   11:20   71.7     9    6.5   151     15.5   854.3    0.00    1054    63.9  
 122   11:30   72.5     8    8.2   128     16.3   854.2    0.00    1116    64.3  
 122   11:40   72.6     8    5.9   127     12.5   854.1    0.00     893    64.7  
 122   11:50   71.6     8    4.8   140     12.7   854.0    0.00     971    65.0  
 122   12:00   72.1     8    6.2    90     16.5   853.9    0.00    1072    65.4  
 122   12:10   73.0     8    6.6   111     10.7   853.8    0.00    1150    66.0  
 122   12:20   73.3     8    7.1   107     13.6   853.6    0.00     995    66.5  
 122   12:30   72.8     8    9.2   158     17.4   853.5    0.00    1034    67.0  
 122   12:40   73.7     7    5.4   126     12.5   853.4    0.00    1087    67.6  
 122   12:50   73.7     8    7.7    84     12.8   853.3    0.00    1057    68.1  
 122   13:00   73.7     8    5.7    71      9.6   853.2    0.00    1026    68.5  
 122   13:10   74.2     8    6.5   127     12.4   853.1    0.00    1008    69.1  
 122   13:20   74.9     8    5.1    86     10.8   853.0    0.00     991    69.6  
 122   13:30   74.4     7    6.9   173     12.3   852.9    0.00     957    70.1  
 122   13:40   73.7     7    7.2   113     15.7   852.8    0.00     895    70.5  
 122   13:50   73.3     8    4.9   232     11.4   852.6    0.00     943    70.9  
 122   14:00   74.4     8    3.2   119      9.2   852.4    0.00     886    71.5  
 122   14:10   75.3     8    2.9   161      8.2   852.2    0.00     833    72.0  
 122   14:20   75.5     8    5.6   192     11.7   852.1    0.00     803    72.5  
 122   14:30   74.8     8    6.3   181     13.1   851.8    0.00     762    72.7  
 122   14:40   74.4     8    8.2   180     13.9   851.7    0.00     770    73.0  
 122   14:50   74.7     8    5.6   188     11.1   851.6    0.00     735    73.4  
 122   15:00   74.5     8    4.7   190      8.8   851.5    0.00     677    73.7  
 122   15:10   74.5     8    3.3   257      9.2   851.3    0.00     564    73.9  
 122   15:20   74.9     8    6.1   180     11.4   851.3    0.00     696    74.2  
 122   15:30   74.7     8    5.9   191     14.5   851.3    0.00     619    74.6  
 122   15:40   74.6     8    4.6   162     10.6   851.2    0.00     498    74.7  
 122   15:50   73.6     8    5.2   147     11.2   851.2    0.00     427    74.8  
 122   16:00   74.6     8    4.9   180     11.5   851.1    0.00     594    75.0  
 122   16:10   74.7     8    4.6   212      9.8   851.1    0.00     467    75.2  
 122   16:20   73.2     8    7.0   206     11.5   851.1    0.00     237    75.2  
 122   16:30   71.5     8    5.3   193      8.2   851.1    0.00     177    74.9  
 122   16:40   71.5     8    3.4   187      6.0   851.1    0.00     188    74.9  
 122   16:50   71.7     8    3.5   196      5.5   851.0    0.00     182    74.9  
 122   17:00   71.5     8    3.1   195      5.2   851.0    0.00     165    74.9  
 122   17:10   71.2     8    4.2   217      8.3   851.0    0.00     142    74.9  
 122   17:20   70.8     8    2.9   260      5.7   851.0    0.00     112    74.9  
 122   17:30   70.1     9    3.2   285      5.4   850.9    0.00      86    74.8  
 122   17:40   69.4     9    3.3   296      5.4   850.9    0.00      77    74.7  
 122   17:50   68.6     9    3.2   303      6.9   850.8    0.00      65    74.6  
 122   18:00   68.4     9    3.6   293      6.6   850.8    0.00      51    74.4  
 122   18:10   66.5    11    3.6   270      4.9   850.7    0.00      31    74.3  

Return to Garden Spring, Nevada graphs page.


Western Regional Climate Center,wrcc@dri.edu